sensor_id;sensor_type;location;lat;lon;timestamp;P1;durP1;ratioP1;P2;durP2;ratioP2
2396;SDS011;1209;48.410;9.054;2022-07-30T00:01:01;4.10;;;3.07;;
2396;SDS011;1209;48.410;9.054;2022-07-30T00:03:27;2.90;;;2.70;;
2396;SDS011;1209;48.410;9.054;2022-07-30T00:05:53;3.30;;;3.00;;
2396;SDS011;1209;48.410;9.054;2022-07-30T00:08:20;3.00;;;2.80;;
2396;SDS011;1209;48.410;9.054;2022-07-30T00:10:48;3.20;;;2.90;;
2396;SDS011;1209;48.410;9.054;2022-07-30T00:13:14;2.90;;;2.70;;
2396;SDS011;1209;48.410;9.054;2022-07-30T00:15:39;4.33;;;3.27;;
2396;SDS011;1209;48.410;9.054;2022-07-30T00:18:05;3.43;;;3.20;;
2396;SDS011;1209;48.410;9.054;2022-07-30T00:20:30;3.50;;;3.20;;
2396;SDS011;1209;48.410;9.054;2022-07-30T00:22:56;4.00;;;3.03;;
2396;SDS011;1209;48.410;9.054;2022-07-30T00:25:21;3.20;;;2.53;;
2396;SDS011;1209;48.410;9.054;2022-07-30T00:27:47;5.07;;;3.20;;
2396;SDS011;1209;48.410;9.054;2022-07-30T00:30:12;4.70;;;3.20;;
2396;SDS011;1209;48.410;9.054;2022-07-30T00:32:38;3.17;;;2.87;;
2396;SDS011;1209;48.410;9.054;2022-07-30T00:35:03;2.73;;;2.53;;
2396;SDS011;1209;48.410;9.054;2022-07-30T00:37:29;3.03;;;2.83;;
2396;SDS011;1209;48.410;9.054;2022-07-30T00:39:54;5.13;;;2.50;;
2396;SDS011;1209;48.410;9.054;2022-07-30T00:42:20;3.07;;;2.77;;
2396;SDS011;1209;48.410;9.054;2022-07-30T00:44:53;3.23;;;2.97;;
2396;SDS011;1209;48.410;9.054;2022-07-30T00:47:18;3.57;;;3.27;;
2396;SDS011;1209;48.410;9.054;2022-07-30T00:49:45;3.20;;;3.00;;
2396;SDS011;1209;48.410;9.054;2022-07-30T00:52:10;2.80;;;2.60;;
2396;SDS011;1209;48.410;9.054;2022-07-30T00:54:36;3.20;;;2.90;;
2396;SDS011;1209;48.410;9.054;2022-07-30T00:57:01;2.90;;;2.70;;
2396;SDS011;1209;48.410;9.054;2022-07-30T00:59:26;2.90;;;2.60;;
2396;SDS011;1209;48.410;9.054;2022-07-30T01:01:52;2.80;;;2.60;;
2396;SDS011;1209;48.410;9.054;2022-07-30T01:04:19;3.40;;;3.10;;
2396;SDS011;1209;48.410;9.054;2022-07-30T01:06:44;3.40;;;3.10;;
2396;SDS011;1209;48.410;9.054;2022-07-30T01:09:10;3.03;;;2.73;;
2396;SDS011;1209;48.410;9.054;2022-07-30T01:11:36;4.77;;;2.83;;
2396;SDS011;1209;48.410;9.054;2022-07-30T01:14:06;3.43;;;3.13;;
2396;SDS011;1209;48.410;9.054;2022-07-30T01:16:34;3.00;;;2.80;;
2396;SDS011;1209;48.410;9.054;2022-07-30T01:19:01;2.83;;;2.63;;
2396;SDS011;1209;48.410;9.054;2022-07-30T01:21:59;3.33;;;3.13;;
2396;SDS011;1209;48.410;9.054;2022-07-30T01:24:34;5.10;;;3.00;;
2396;SDS011;1209;48.410;9.054;2022-07-30T01:27:02;3.20;;;3.00;;
2396;SDS011;1209;48.410;9.054;2022-07-30T01:29:30;2.60;;;2.47;;
2396;SDS011;1209;48.410;9.054;2022-07-30T01:31:56;2.70;;;2.50;;
2396;SDS011;1209;48.410;9.054;2022-07-30T01:34:25;3.17;;;2.90;;
2396;SDS011;1209;48.410;9.054;2022-07-30T01:36:53;3.50;;;3.20;;
2396;SDS011;1209;48.410;9.054;2022-07-30T01:39:20;3.03;;;2.77;;
2396;SDS011;1209;48.410;9.054;2022-07-30T01:41:48;3.67;;;3.20;;
2396;SDS011;1209;48.410;9.054;2022-07-30T01:44:15;3.33;;;3.03;;
2396;SDS011;1209;48.410;9.054;2022-07-30T01:46:41;4.03;;;3.67;;
2396;SDS011;1209;48.410;9.054;2022-07-30T01:49:07;3.10;;;2.90;;
2396;SDS011;1209;48.410;9.054;2022-07-30T01:51:34;3.40;;;3.07;;
2396;SDS011;1209;48.410;9.054;2022-07-30T01:54:01;3.30;;;3.00;;
2396;SDS011;1209;48.410;9.054;2022-07-30T01:56:27;3.70;;;3.40;;
2396;SDS011;1209;48.410;9.054;2022-07-30T01:58:55;3.10;;;2.80;;
2396;SDS011;1209;48.410;9.054;2022-07-30T02:01:22;5.27;;;3.80;;
2396;SDS011;1209;48.410;9.054;2022-07-30T02:03:48;3.33;;;3.13;;
2396;SDS011;1209;48.410;9.054;2022-07-30T02:06:18;3.40;;;3.10;;
2396;SDS011;1209;48.410;9.054;2022-07-30T02:08:47;5.60;;;3.17;;
2396;SDS011;1209;48.410;9.054;2022-07-30T02:11:18;3.87;;;3.00;;
2396;SDS011;1209;48.410;9.054;2022-07-30T02:14:46;3.70;;;3.40;;
2396;SDS011;1209;48.410;9.054;2022-07-30T02:17:00;2.90;;;2.60;;
2396;SDS011;1209;48.410;9.054;2022-07-30T02:19:29;3.40;;;3.17;;
2396;SDS011;1209;48.410;9.054;2022-07-30T02:22:07;6.00;;;3.30;;
2396;SDS011;1209;48.410;9.054;2022-07-30T02:24:36;3.60;;;3.30;;
2396;SDS011;1209;48.410;9.054;2022-07-30T02:27:06;3.83;;;3.30;;
2396;SDS011;1209;48.410;9.054;2022-07-30T02:29:38;3.50;;;3.20;;
2396;SDS011;1209;48.410;9.054;2022-07-30T02:32:07;4.80;;;3.80;;
2396;SDS011;1209;48.410;9.054;2022-07-30T02:34:35;5.50;;;3.30;;
2396;SDS011;1209;48.410;9.054;2022-07-30T02:37:03;3.20;;;2.90;;
2396;SDS011;1209;48.410;9.054;2022-07-30T02:39:31;3.47;;;3.23;;
2396;SDS011;1209;48.410;9.054;2022-07-30T02:41:59;3.30;;;3.00;;
2396;SDS011;1209;48.410;9.054;2022-07-30T02:44:26;4.60;;;3.53;;
2396;SDS011;1209;48.410;9.054;2022-07-30T02:46:54;3.73;;;3.10;;
2396;SDS011;1209;48.410;9.054;2022-07-30T02:49:21;4.77;;;3.50;;
2396;SDS011;1209;48.410;9.054;2022-07-30T02:51:48;3.60;;;3.30;;
2396;SDS011;1209;48.410;9.054;2022-07-30T02:54:15;3.87;;;3.40;;
2396;SDS011;1209;48.410;9.054;2022-07-30T02:56:43;4.23;;;3.90;;
2396;SDS011;1209;48.410;9.054;2022-07-30T02:59:11;4.33;;;3.70;;
2396;SDS011;1209;48.410;9.054;2022-07-30T03:01:37;3.60;;;3.27;;
2396;SDS011;1209;48.410;9.054;2022-07-30T03:04:04;5.60;;;3.60;;
2396;SDS011;1209;48.410;9.054;2022-07-30T03:06:31;4.93;;;3.83;;
2396;SDS011;1209;48.410;9.054;2022-07-30T03:08:57;3.97;;;3.50;;
2396;SDS011;1209;48.410;9.054;2022-07-30T03:11:25;3.20;;;3.00;;
2396;SDS011;1209;48.410;9.054;2022-07-30T03:13:52;4.00;;;3.60;;
2396;SDS011;1209;48.410;9.054;2022-07-30T03:16:17;4.00;;;3.60;;
2396;SDS011;1209;48.410;9.054;2022-07-30T03:18:46;3.93;;;3.63;;
2396;SDS011;1209;48.410;9.054;2022-07-30T03:21:13;3.57;;;3.27;;
2396;SDS011;1209;48.410;9.054;2022-07-30T03:23:40;4.60;;;4.20;;
2396;SDS011;1209;48.410;9.054;2022-07-30T03:26:09;4.07;;;3.77;;
2396;SDS011;1209;48.410;9.054;2022-07-30T03:28:37;3.97;;;3.60;;
2396;SDS011;1209;48.410;9.054;2022-07-30T03:31:04;5.27;;;4.37;;
2396;SDS011;1209;48.410;9.054;2022-07-30T03:33:30;4.00;;;3.60;;
2396;SDS011;1209;48.410;9.054;2022-07-30T03:35:57;7.93;;;4.23;;
2396;SDS011;1209;48.410;9.054;2022-07-30T03:38:23;6.10;;;3.97;;
2396;SDS011;1209;48.410;9.054;2022-07-30T03:40:49;4.70;;;4.30;;
2396;SDS011;1209;48.410;9.054;2022-07-30T03:43:16;4.97;;;4.57;;
2396;SDS011;1209;48.410;9.054;2022-07-30T03:45:42;4.30;;;3.70;;
2396;SDS011;1209;48.410;9.054;2022-07-30T03:48:10;4.10;;;3.77;;
2396;SDS011;1209;48.410;9.054;2022-07-30T03:50:37;4.53;;;4.13;;
2396;SDS011;1209;48.410;9.054;2022-07-30T03:53:05;5.93;;;3.53;;
2396;SDS011;1209;48.410;9.054;2022-07-30T03:55:32;5.40;;;4.90;;
2396;SDS011;1209;48.410;9.054;2022-07-30T03:58:01;4.00;;;3.60;;
2396;SDS011;1209;48.410;9.054;2022-07-30T04:00:27;4.00;;;3.70;;
2396;SDS011;1209;48.410;9.054;2022-07-30T04:02:53;6.30;;;5.70;;
2396;SDS011;1209;48.410;9.054;2022-07-30T04:05:19;4.20;;;3.80;;
2396;SDS011;1209;48.410;9.054;2022-07-30T04:07:45;7.17;;;4.73;;
2396;SDS011;1209;48.410;9.054;2022-07-30T04:10:11;5.07;;;4.60;;
2396;SDS011;1209;48.410;9.054;2022-07-30T04:12:37;5.03;;;4.60;;
2396;SDS011;1209;48.410;9.054;2022-07-30T04:15:03;4.43;;;3.97;;
2396;SDS011;1209;48.410;9.054;2022-07-30T04:17:37;5.20;;;3.93;;
2396;SDS011;1209;48.410;9.054;2022-07-30T04:20:09;4.17;;;3.77;;
2396;SDS011;1209;48.410;9.054;2022-07-30T04:22:37;4.73;;;4.17;;
2396;SDS011;1209;48.410;9.054;2022-07-30T04:25:05;5.53;;;4.27;;
2396;SDS011;1209;48.410;9.054;2022-07-30T04:27:32;6.40;;;5.80;;
2396;SDS011;1209;48.410;9.054;2022-07-30T04:29:59;4.83;;;4.43;;
2396;SDS011;1209;48.410;9.054;2022-07-30T04:32:25;5.50;;;5.00;;
2396;SDS011;1209;48.410;9.054;2022-07-30T04:34:51;6.20;;;5.70;;
2396;SDS011;1209;48.410;9.054;2022-07-30T04:37:20;6.03;;;5.00;;
2396;SDS011;1209;48.410;9.054;2022-07-30T04:39:47;5.73;;;5.30;;
2396;SDS011;1209;48.410;9.054;2022-07-30T04:42:15;5.47;;;4.97;;
2396;SDS011;1209;48.410;9.054;2022-07-30T04:44:41;4.83;;;4.43;;
2396;SDS011;1209;48.410;9.054;2022-07-30T04:47:07;5.40;;;4.37;;
2396;SDS011;1209;48.410;9.054;2022-07-30T04:49:33;4.90;;;4.50;;
2396;SDS011;1209;48.410;9.054;2022-07-30T04:51:58;5.23;;;4.67;;
2396;SDS011;1209;48.410;9.054;2022-07-30T04:54:26;4.97;;;4.50;;
2396;SDS011;1209;48.410;9.054;2022-07-30T04:57:02;5.03;;;4.53;;
2396;SDS011;1209;48.410;9.054;2022-07-30T04:59:29;5.90;;;4.10;;
2396;SDS011;1209;48.410;9.054;2022-07-30T05:01:55;5.60;;;5.00;;
2396;SDS011;1209;48.410;9.054;2022-07-30T05:04:23;4.63;;;4.23;;
2396;SDS011;1209;48.410;9.054;2022-07-30T05:06:49;6.53;;;4.23;;
2396;SDS011;1209;48.410;9.054;2022-07-30T05:09:15;5.30;;;4.80;;
2396;SDS011;1209;48.410;9.054;2022-07-30T05:11:41;6.47;;;4.13;;
2396;SDS011;1209;48.410;9.054;2022-07-30T05:14:06;7.50;;;4.57;;
2396;SDS011;1209;48.410;9.054;2022-07-30T05:16:32;7.13;;;5.90;;
2396;SDS011;1209;48.410;9.054;2022-07-30T05:18:59;7.47;;;6.67;;
2396;SDS011;1209;48.410;9.054;2022-07-30T05:21:24;6.73;;;5.13;;
2396;SDS011;1209;48.410;9.054;2022-07-30T05:23:49;5.43;;;4.90;;
2396;SDS011;1209;48.410;9.054;2022-07-30T05:26:17;5.27;;;4.87;;
2396;SDS011;1209;48.410;9.054;2022-07-30T05:28:43;4.57;;;4.10;;
2396;SDS011;1209;48.410;9.054;2022-07-30T05:31:08;5.30;;;4.80;;
2396;SDS011;1209;48.410;9.054;2022-07-30T05:33:34;5.10;;;4.70;;
2396;SDS011;1209;48.410;9.054;2022-07-30T05:35:59;5.83;;;4.30;;
2396;SDS011;1209;48.410;9.054;2022-07-30T05:38:25;5.10;;;4.60;;
2396;SDS011;1209;48.410;9.054;2022-07-30T05:40:50;4.90;;;4.50;;
2396;SDS011;1209;48.410;9.054;2022-07-30T05:43:16;4.07;;;3.67;;
2396;SDS011;1209;48.410;9.054;2022-07-30T05:45:41;4.37;;;3.90;;
2396;SDS011;1209;48.410;9.054;2022-07-30T05:48:07;4.37;;;3.97;;
2396;SDS011;1209;48.410;9.054;2022-07-30T05:50:32;4.80;;;3.93;;
2396;SDS011;1209;48.410;9.054;2022-07-30T05:52:58;4.43;;;4.03;;
2396;SDS011;1209;48.410;9.054;2022-07-30T05:55:23;4.53;;;4.13;;
2396;SDS011;1209;48.410;9.054;2022-07-30T05:57:48;4.90;;;4.40;;
2396;SDS011;1209;48.410;9.054;2022-07-30T06:00:14;4.17;;;3.80;;
2396;SDS011;1209;48.410;9.054;2022-07-30T06:02:40;7.33;;;3.57;;
2396;SDS011;1209;48.410;9.054;2022-07-30T06:05:05;4.23;;;3.83;;
2396;SDS011;1209;48.410;9.054;2022-07-30T06:07:31;4.27;;;3.77;;
2396;SDS011;1209;48.410;9.054;2022-07-30T06:09:57;3.93;;;3.67;;
2396;SDS011;1209;48.410;9.054;2022-07-30T06:12:24;4.00;;;3.70;;
2396;SDS011;1209;48.410;9.054;2022-07-30T06:14:51;4.30;;;3.90;;
2396;SDS011;1209;48.410;9.054;2022-07-30T06:17:16;6.53;;;4.20;;
2396;SDS011;1209;48.410;9.054;2022-07-30T06:19:41;4.40;;;4.00;;
2396;SDS011;1209;48.410;9.054;2022-07-30T06:22:07;4.67;;;3.57;;
2396;SDS011;1209;48.410;9.054;2022-07-30T06:24:32;4.77;;;4.23;;
2396;SDS011;1209;48.410;9.054;2022-07-30T06:26:58;6.27;;;4.60;;
2396;SDS011;1209;48.410;9.054;2022-07-30T06:29:23;5.20;;;4.47;;
2396;SDS011;1209;48.410;9.054;2022-07-30T06:31:49;3.90;;;3.60;;
2396;SDS011;1209;48.410;9.054;2022-07-30T06:34:14;4.43;;;4.03;;
2396;SDS011;1209;48.410;9.054;2022-07-30T06:36:39;4.70;;;4.30;;
2396;SDS011;1209;48.410;9.054;2022-07-30T06:39:05;4.63;;;4.23;;
2396;SDS011;1209;48.410;9.054;2022-07-30T06:41:30;3.80;;;3.50;;
2396;SDS011;1209;48.410;9.054;2022-07-30T06:43:55;4.00;;;3.63;;
2396;SDS011;1209;48.410;9.054;2022-07-30T06:46:21;4.10;;;3.67;;
2396;SDS011;1209;48.410;9.054;2022-07-30T06:48:46;4.73;;;4.00;;
2396;SDS011;1209;48.410;9.054;2022-07-30T06:51:11;4.47;;;3.97;;
2396;SDS011;1209;48.410;9.054;2022-07-30T06:53:37;4.00;;;3.67;;
2396;SDS011;1209;48.410;9.054;2022-07-30T06:56:02;4.37;;;3.97;;
2396;SDS011;1209;48.410;9.054;2022-07-30T06:58:28;5.10;;;4.23;;
2396;SDS011;1209;48.410;9.054;2022-07-30T07:00:53;4.00;;;3.70;;
2396;SDS011;1209;48.410;9.054;2022-07-30T07:03:19;5.20;;;3.80;;
2396;SDS011;1209;48.410;9.054;2022-07-30T07:05:44;5.23;;;4.73;;
2396;SDS011;1209;48.410;9.054;2022-07-30T07:08:09;4.23;;;3.93;;
2396;SDS011;1209;48.410;9.054;2022-07-30T07:10:35;4.30;;;3.87;;
2396;SDS011;1209;48.410;9.054;2022-07-30T07:13:00;4.27;;;3.87;;
2396;SDS011;1209;48.410;9.054;2022-07-30T07:15:26;4.53;;;4.13;;
2396;SDS011;1209;48.410;9.054;2022-07-30T07:17:51;3.90;;;3.50;;
2396;SDS011;1209;48.410;9.054;2022-07-30T07:20:17;6.70;;;4.17;;
2396;SDS011;1209;48.410;9.054;2022-07-30T07:22:42;5.10;;;4.20;;
2396;SDS011;1209;48.410;9.054;2022-07-30T07:25:08;7.63;;;4.40;;
2396;SDS011;1209;48.410;9.054;2022-07-30T07:27:34;5.33;;;3.47;;
2396;SDS011;1209;48.410;9.054;2022-07-30T07:30:00;4.53;;;4.13;;
2396;SDS011;1209;48.410;9.054;2022-07-30T07:32:26;6.40;;;4.37;;
2396;SDS011;1209;48.410;9.054;2022-07-30T07:34:51;4.57;;;4.17;;
2396;SDS011;1209;48.410;9.054;2022-07-30T07:37:17;5.70;;;4.60;;
2396;SDS011;1209;48.410;9.054;2022-07-30T07:39:42;6.60;;;3.40;;
2396;SDS011;1209;48.410;9.054;2022-07-30T07:42:08;5.70;;;3.40;;
2396;SDS011;1209;48.410;9.054;2022-07-30T07:44:33;4.20;;;3.77;;
2396;SDS011;1209;48.410;9.054;2022-07-30T07:46:58;3.40;;;3.20;;
2396;SDS011;1209;48.410;9.054;2022-07-30T07:49:24;4.30;;;3.50;;
2396;SDS011;1209;48.410;9.054;2022-07-30T07:51:49;3.87;;;3.43;;
2396;SDS011;1209;48.410;9.054;2022-07-30T07:54:15;4.10;;;3.70;;
2396;SDS011;1209;48.410;9.054;2022-07-30T07:56:40;4.27;;;3.20;;
2396;SDS011;1209;48.410;9.054;2022-07-30T07:59:06;3.57;;;3.27;;
2396;SDS011;1209;48.410;9.054;2022-07-30T08:01:32;3.20;;;2.97;;
2396;SDS011;1209;48.410;9.054;2022-07-30T08:03:58;2.97;;;2.67;;
2396;SDS011;1209;48.410;9.054;2022-07-30T08:06:23;4.20;;;3.30;;
2396;SDS011;1209;48.410;9.054;2022-07-30T08:08:49;2.77;;;2.57;;
2396;SDS011;1209;48.410;9.054;2022-07-30T08:11:14;6.60;;;3.57;;
2396;SDS011;1209;48.410;9.054;2022-07-30T08:13:39;3.67;;;3.03;;
2396;SDS011;1209;48.410;9.054;2022-07-30T08:16:05;3.17;;;2.97;;
2396;SDS011;1209;48.410;9.054;2022-07-30T08:18:34;2.83;;;2.60;;
2396;SDS011;1209;48.410;9.054;2022-07-30T08:21:00;3.50;;;3.20;;
2396;SDS011;1209;48.410;9.054;2022-07-30T08:23:26;3.20;;;3.00;;
2396;SDS011;1209;48.410;9.054;2022-07-30T08:25:51;3.70;;;3.40;;
2396;SDS011;1209;48.410;9.054;2022-07-30T08:28:16;3.80;;;2.77;;
2396;SDS011;1209;48.410;9.054;2022-07-30T08:30:42;3.30;;;3.00;;
2396;SDS011;1209;48.410;9.054;2022-07-30T08:33:07;6.67;;;3.10;;
2396;SDS011;1209;48.410;9.054;2022-07-30T08:35:33;6.80;;;3.40;;
2396;SDS011;1209;48.410;9.054;2022-07-30T08:37:58;4.00;;;3.60;;
2396;SDS011;1209;48.410;9.054;2022-07-30T08:40:24;5.63;;;3.47;;
2396;SDS011;1209;48.410;9.054;2022-07-30T08:42:51;3.30;;;3.00;;
2396;SDS011;1209;48.410;9.054;2022-07-30T08:45:17;4.40;;;2.90;;
2396;SDS011;1209;48.410;9.054;2022-07-30T08:47:44;3.40;;;2.80;;
2396;SDS011;1209;48.410;9.054;2022-07-30T08:50:11;3.27;;;2.97;;
2396;SDS011;1209;48.410;9.054;2022-07-30T08:52:38;3.10;;;2.80;;
2396;SDS011;1209;48.410;9.054;2022-07-30T08:55:04;7.23;;;3.70;;
2396;SDS011;1209;48.410;9.054;2022-07-30T08:57:31;3.90;;;3.43;;
2396;SDS011;1209;48.410;9.054;2022-07-30T08:59:57;3.20;;;3.00;;
2396;SDS011;1209;48.410;9.054;2022-07-30T09:02:23;3.37;;;2.87;;
2396;SDS011;1209;48.410;9.054;2022-07-30T09:04:49;2.90;;;2.70;;
2396;SDS011;1209;48.410;9.054;2022-07-30T09:07:14;3.53;;;3.23;;
2396;SDS011;1209;48.410;9.054;2022-07-30T09:09:40;3.23;;;2.90;;
2396;SDS011;1209;48.410;9.054;2022-07-30T09:15:03;2.63;;;2.43;;
2396;SDS011;1209;48.410;9.054;2022-07-30T09:20:13;2.90;;;2.70;;
2396;SDS011;1209;48.410;9.054;2022-07-30T09:22:43;2.87;;;2.67;;
2396;SDS011;1209;48.410;9.054;2022-07-30T09:25:39;2.50;;;2.30;;
2396;SDS011;1209;48.410;9.054;2022-07-30T09:28:05;2.80;;;2.60;;
2396;SDS011;1209;48.410;9.054;2022-07-30T09:30:43;2.60;;;2.40;;
2396;SDS011;1209;48.410;9.054;2022-07-30T09:33:09;3.33;;;2.83;;
2396;SDS011;1209;48.410;9.054;2022-07-30T09:35:35;4.53;;;2.90;;
2396;SDS011;1209;48.410;9.054;2022-07-30T09:38:01;2.77;;;2.57;;
2396;SDS011;1209;48.410;9.054;2022-07-30T09:40:28;2.63;;;2.43;;
2396;SDS011;1209;48.410;9.054;2022-07-30T09:43:07;2.90;;;2.70;;
2396;SDS011;1209;48.410;9.054;2022-07-30T09:45:34;2.57;;;2.30;;
2396;SDS011;1209;48.410;9.054;2022-07-30T09:48:00;3.53;;;2.80;;
2396;SDS011;1209;48.410;9.054;2022-07-30T09:50:27;2.97;;;2.53;;
2396;SDS011;1209;48.410;9.054;2022-07-30T09:52:53;2.57;;;2.37;;
2396;SDS011;1209;48.410;9.054;2022-07-30T09:55:31;2.50;;;2.30;;
2396;SDS011;1209;48.410;9.054;2022-07-30T09:58:05;3.07;;;2.83;;
2396;SDS011;1209;48.410;9.054;2022-07-30T10:00:31;2.37;;;2.17;;
2396;SDS011;1209;48.410;9.054;2022-07-30T10:02:58;3.13;;;2.53;;
2396;SDS011;1209;48.410;9.054;2022-07-30T10:05:24;2.10;;;2.00;;
2396;SDS011;1209;48.410;9.054;2022-07-30T10:10:17;4.27;;;3.40;;
2396;SDS011;1209;48.410;9.054;2022-07-30T10:12:45;2.20;;;2.00;;
2396;SDS011;1209;48.410;9.054;2022-07-30T10:15:12;5.30;;;2.53;;
2396;SDS011;1209;48.410;9.054;2022-07-30T10:17:42;2.10;;;2.00;;
2396;SDS011;1209;48.410;9.054;2022-07-30T10:20:09;2.10;;;2.00;;
2396;SDS011;1209;48.410;9.054;2022-07-30T10:22:36;5.03;;;2.20;;
2396;SDS011;1209;48.410;9.054;2022-07-30T10:25:02;2.40;;;2.20;;
2396;SDS011;1209;48.410;9.054;2022-07-30T10:27:28;2.30;;;2.10;;
2396;SDS011;1209;48.410;9.054;2022-07-30T10:29:56;2.40;;;2.10;;
2396;SDS011;1209;48.410;9.054;2022-07-30T10:32:23;3.50;;;1.90;;
2396;SDS011;1209;48.410;9.054;2022-07-30T10:34:53;2.83;;;2.63;;
2396;SDS011;1209;48.410;9.054;2022-07-30T10:37:19;2.43;;;2.23;;
2396;SDS011;1209;48.410;9.054;2022-07-30T10:47:47;2.27;;;2.07;;
2396;SDS011;1209;48.410;9.054;2022-07-30T10:50:15;3.20;;;2.70;;
2396;SDS011;1209;48.410;9.054;2022-07-30T10:52:55;2.87;;;2.57;;
2396;SDS011;1209;48.410;9.054;2022-07-30T10:55:27;2.90;;;2.27;;
2396;SDS011;1209;48.410;9.054;2022-07-30T10:58:04;3.27;;;2.30;;
2396;SDS011;1209;48.410;9.054;2022-07-30T11:00:56;1.70;;;1.60;;
2396;SDS011;1209;48.410;9.054;2022-07-30T11:03:21;2.57;;;2.37;;
2396;SDS011;1209;48.410;9.054;2022-07-30T11:05:52;1.97;;;1.87;;
2396;SDS011;1209;48.410;9.054;2022-07-30T11:08:40;3.67;;;2.30;;
2396;SDS011;1209;48.410;9.054;2022-07-30T11:13:48;2.17;;;2.03;;
2396;SDS011;1209;48.410;9.054;2022-07-30T11:16:19;1.90;;;1.80;;
2396;SDS011;1209;48.410;9.054;2022-07-30T11:21:50;2.40;;;2.20;;
2396;SDS011;1209;48.410;9.054;2022-07-30T11:24:46;2.47;;;2.30;;
2396;SDS011;1209;48.410;9.054;2022-07-30T11:27:54;2.07;;;1.90;;
2396;SDS011;1209;48.410;9.054;2022-07-30T11:30:03;3.20;;;2.30;;
2396;SDS011;1209;48.410;9.054;2022-07-30T11:32:32;2.43;;;2.23;;
2396;SDS011;1209;48.410;9.054;2022-07-30T11:40:26;3.40;;;1.97;;
2396;SDS011;1209;48.410;9.054;2022-07-30T11:43:15;2.17;;;1.97;;
2396;SDS011;1209;48.410;9.054;2022-07-30T11:45:47;2.00;;;1.90;;
2396;SDS011;1209;48.410;9.054;2022-07-30T11:48:31;1.70;;;1.60;;
2396;SDS011;1209;48.410;9.054;2022-07-30T11:50:57;8.70;;;2.13;;
2396;SDS011;1209;48.410;9.054;2022-07-30T11:53:23;2.10;;;2.00;;
2396;SDS011;1209;48.410;9.054;2022-07-30T11:55:52;1.63;;;1.53;;
2396;SDS011;1209;48.410;9.054;2022-07-30T12:00:50;1.77;;;1.67;;
2396;SDS011;1209;48.410;9.054;2022-07-30T12:03:17;2.00;;;1.87;;
2396;SDS011;1209;48.410;9.054;2022-07-30T12:05:43;1.80;;;1.70;;
2396;SDS011;1209;48.410;9.054;2022-07-30T12:08:10;1.97;;;1.80;;
2396;SDS011;1209;48.410;9.054;2022-07-30T12:10:37;1.80;;;1.70;;
2396;SDS011;1209;48.410;9.054;2022-07-30T12:13:12;1.33;;;1.27;;
2396;SDS011;1209;48.410;9.054;2022-07-30T12:15:43;1.67;;;1.57;;
2396;SDS011;1209;48.410;9.054;2022-07-30T12:18:10;1.30;;;1.30;;
2396;SDS011;1209;48.410;9.054;2022-07-30T12:20:38;1.97;;;1.87;;
2396;SDS011;1209;48.410;9.054;2022-07-30T12:23:10;1.60;;;1.50;;
2396;SDS011;1209;48.410;9.054;2022-07-30T12:25:37;2.27;;;2.07;;
2396;SDS011;1209;48.410;9.054;2022-07-30T12:28:06;1.53;;;1.43;;
2396;SDS011;1209;48.410;9.054;2022-07-30T12:30:32;1.97;;;1.87;;
2396;SDS011;1209;48.410;9.054;2022-07-30T12:32:58;2.00;;;1.90;;
2396;SDS011;1209;48.410;9.054;2022-07-30T12:35:40;1.97;;;1.80;;
2396;SDS011;1209;48.410;9.054;2022-07-30T12:38:06;2.60;;;1.93;;
2396;SDS011;1209;48.410;9.054;2022-07-30T12:40:32;5.50;;;1.90;;
2396;SDS011;1209;48.410;9.054;2022-07-30T12:42:57;1.70;;;1.60;;
2396;SDS011;1209;48.410;9.054;2022-07-30T12:45:30;1.97;;;1.87;;
2396;SDS011;1209;48.410;9.054;2022-07-30T12:47:57;1.87;;;1.77;;
2396;SDS011;1209;48.410;9.054;2022-07-30T12:50:23;1.80;;;1.70;;
2396;SDS011;1209;48.410;9.054;2022-07-30T12:52:50;1.37;;;1.33;;
2396;SDS011;1209;48.410;9.054;2022-07-30T12:55:18;1.80;;;1.70;;
2396;SDS011;1209;48.410;9.054;2022-07-30T13:00:22;1.60;;;1.50;;
2396;SDS011;1209;48.410;9.054;2022-07-30T13:02:49;2.07;;;1.90;;
2396;SDS011;1209;48.410;9.054;2022-07-30T13:05:14;2.63;;;1.80;;
2396;SDS011;1209;48.410;9.054;2022-07-30T13:10:37;2.13;;;1.87;;
2396;SDS011;1209;48.410;9.054;2022-07-30T13:13:03;3.13;;;2.23;;
2396;SDS011;1209;48.410;9.054;2022-07-30T13:15:28;1.97;;;1.70;;
2396;SDS011;1209;48.410;9.054;2022-07-30T13:17:54;1.70;;;1.60;;
2396;SDS011;1209;48.410;9.054;2022-07-30T13:20:19;1.40;;;1.40;;
2396;SDS011;1209;48.410;9.054;2022-07-30T13:22:45;1.60;;;1.50;;
2396;SDS011;1209;48.410;9.054;2022-07-30T13:25:11;1.77;;;1.67;;
2396;SDS011;1209;48.410;9.054;2022-07-30T13:27:37;1.77;;;1.67;;
2396;SDS011;1209;48.410;9.054;2022-07-30T13:30:03;1.63;;;1.53;;
2396;SDS011;1209;48.410;9.054;2022-07-30T13:32:29;2.40;;;1.70;;
2396;SDS011;1209;48.410;9.054;2022-07-30T13:34:55;1.43;;;1.33;;
2396;SDS011;1209;48.410;9.054;2022-07-30T13:37:21;1.20;;;1.20;;
2396;SDS011;1209;48.410;9.054;2022-07-30T13:39:47;2.27;;;2.10;;
2396;SDS011;1209;48.410;9.054;2022-07-30T13:42:13;1.80;;;1.70;;
2396;SDS011;1209;48.410;9.054;2022-07-30T13:44:38;1.57;;;1.47;;
2396;SDS011;1209;48.410;9.054;2022-07-30T13:47:04;1.47;;;1.47;;
2396;SDS011;1209;48.410;9.054;2022-07-30T13:49:32;3.37;;;1.37;;
2396;SDS011;1209;48.410;9.054;2022-07-30T13:51:59;2.17;;;2.07;;
2396;SDS011;1209;48.410;9.054;2022-07-30T13:54:24;1.40;;;1.40;;
2396;SDS011;1209;48.410;9.054;2022-07-30T13:56:50;2.03;;;1.90;;
2396;SDS011;1209;48.410;9.054;2022-07-30T13:59:15;2.20;;;2.00;;
2396;SDS011;1209;48.410;9.054;2022-07-30T14:01:41;2.13;;;2.03;;
2396;SDS011;1209;48.410;9.054;2022-07-30T14:04:06;1.70;;;1.60;;
2396;SDS011;1209;48.410;9.054;2022-07-30T14:06:32;1.80;;;1.70;;
2396;SDS011;1209;48.410;9.054;2022-07-30T14:08:57;1.63;;;1.53;;
2396;SDS011;1209;48.410;9.054;2022-07-30T14:11:23;2.00;;;1.90;;
2396;SDS011;1209;48.410;9.054;2022-07-30T14:13:48;2.47;;;2.07;;
2396;SDS011;1209;48.410;9.054;2022-07-30T14:16:13;2.13;;;1.93;;
2396;SDS011;1209;48.410;9.054;2022-07-30T14:18:39;1.60;;;1.50;;
2396;SDS011;1209;48.410;9.054;2022-07-30T14:21:04;2.00;;;1.90;;
2396;SDS011;1209;48.410;9.054;2022-07-30T14:23:29;2.20;;;1.87;;
2396;SDS011;1209;48.410;9.054;2022-07-30T14:25:55;2.03;;;1.60;;
2396;SDS011;1209;48.410;9.054;2022-07-30T14:28:20;1.80;;;1.70;;
2396;SDS011;1209;48.410;9.054;2022-07-30T14:30:46;1.60;;;1.50;;
2396;SDS011;1209;48.410;9.054;2022-07-30T14:33:11;1.70;;;1.60;;
2396;SDS011;1209;48.410;9.054;2022-07-30T14:35:36;1.63;;;1.53;;
2396;SDS011;1209;48.410;9.054;2022-07-30T14:38:02;1.97;;;1.87;;
2396;SDS011;1209;48.410;9.054;2022-07-30T14:40:27;3.33;;;2.10;;
2396;SDS011;1209;48.410;9.054;2022-07-30T14:42:53;1.97;;;1.87;;
2396;SDS011;1209;48.410;9.054;2022-07-30T14:45:18;2.00;;;1.90;;
2396;SDS011;1209;48.410;9.054;2022-07-30T14:47:44;2.07;;;1.97;;
2396;SDS011;1209;48.410;9.054;2022-07-30T14:50:09;1.87;;;1.77;;
2396;SDS011;1209;48.410;9.054;2022-07-30T14:52:35;1.77;;;1.67;;
2396;SDS011;1209;48.410;9.054;2022-07-30T14:55:03;1.63;;;1.53;;
2396;SDS011;1209;48.410;9.054;2022-07-30T14:57:30;2.30;;;2.20;;
2396;SDS011;1209;48.410;9.054;2022-07-30T14:59:56;2.10;;;1.70;;
2396;SDS011;1209;48.410;9.054;2022-07-30T15:02:21;1.83;;;1.73;;
2396;SDS011;1209;48.410;9.054;2022-07-30T15:04:47;3.43;;;2.00;;
2396;SDS011;1209;48.410;9.054;2022-07-30T15:07:13;1.80;;;1.70;;
2396;SDS011;1209;48.410;9.054;2022-07-30T15:09:38;2.03;;;1.93;;
2396;SDS011;1209;48.410;9.054;2022-07-30T15:12:03;1.80;;;1.70;;
2396;SDS011;1209;48.410;9.054;2022-07-30T15:14:29;1.83;;;1.73;;
2396;SDS011;1209;48.410;9.054;2022-07-30T15:16:54;2.23;;;2.03;;
2396;SDS011;1209;48.410;9.054;2022-07-30T15:19:20;4.10;;;2.30;;
2396;SDS011;1209;48.410;9.054;2022-07-30T15:21:46;2.37;;;2.17;;
2396;SDS011;1209;48.410;9.054;2022-07-30T15:24:11;1.97;;;1.80;;
2396;SDS011;1209;48.410;9.054;2022-07-30T15:26:36;3.23;;;3.03;;
2396;SDS011;1209;48.410;9.054;2022-07-30T15:29:02;6.63;;;6.03;;
2396;SDS011;1209;48.410;9.054;2022-07-30T15:31:27;2.93;;;2.73;;
2396;SDS011;1209;48.410;9.054;2022-07-30T15:33:52;2.03;;;1.90;;
2396;SDS011;1209;48.410;9.054;2022-07-30T15:36:18;1.80;;;1.70;;
2396;SDS011;1209;48.410;9.054;2022-07-30T15:38:43;2.60;;;1.80;;
2396;SDS011;1209;48.410;9.054;2022-07-30T15:41:09;1.97;;;1.50;;
2396;SDS011;1209;48.410;9.054;2022-07-30T15:43:34;1.30;;;1.30;;
2396;SDS011;1209;48.410;9.054;2022-07-30T15:46:00;1.83;;;1.73;;
2396;SDS011;1209;48.410;9.054;2022-07-30T15:48:26;1.50;;;1.50;;
2396;SDS011;1209;48.410;9.054;2022-07-30T15:50:52;1.60;;;1.50;;